sensor_id;sensor_type;location;lat;lon;timestamp;P1;durP1;ratioP1;P2;durP2;ratioP2
71320;SDS011;59118;54.322;18.576;2022-07-23T00:01:29;13.97;;;8.23;;
71320;SDS011;59118;54.322;18.576;2022-07-23T00:03:56;15.70;;;8.40;;
71320;SDS011;59118;54.322;18.576;2022-07-23T00:06:23;15.30;;;8.25;;
71320;SDS011;59118;54.322;18.576;2022-07-23T00:08:50;14.48;;;8.07;;
71320;SDS011;59118;54.322;18.576;2022-07-23T00:11:17;12.75;;;8.15;;
71320;SDS011;59118;54.322;18.576;2022-07-23T00:13:44;11.67;;;7.40;;
71320;SDS011;59118;54.322;18.576;2022-07-23T00:16:10;12.02;;;7.30;;
71320;SDS011;59118;54.322;18.576;2022-07-23T00:18:37;14.38;;;8.13;;
71320;SDS011;59118;54.322;18.576;2022-07-23T00:21:13;13.75;;;8.10;;
71320;SDS011;59118;54.322;18.576;2022-07-23T00:23:39;13.13;;;8.63;;
71320;SDS011;59118;54.322;18.576;2022-07-23T00:26:06;13.07;;;7.50;;
71320;SDS011;59118;54.322;18.576;2022-07-23T00:28:34;13.35;;;7.47;;
71320;SDS011;59118;54.322;18.576;2022-07-23T00:31:00;13.98;;;7.53;;
71320;SDS011;59118;54.322;18.576;2022-07-23T00:33:27;13.18;;;7.47;;
71320;SDS011;59118;54.322;18.576;2022-07-23T00:35:54;12.40;;;7.32;;
71320;SDS011;59118;54.322;18.576;2022-07-23T00:38:23;13.63;;;8.10;;
71320;SDS011;59118;54.322;18.576;2022-07-23T00:40:49;13.07;;;7.97;;
71320;SDS011;59118;54.322;18.576;2022-07-23T00:43:16;12.93;;;8.00;;
71320;SDS011;59118;54.322;18.576;2022-07-23T00:45:43;12.85;;;7.38;;
71320;SDS011;59118;54.322;18.576;2022-07-23T00:48:09;16.77;;;8.10;;
71320;SDS011;59118;54.322;18.576;2022-07-23T00:50:36;15.23;;;8.77;;
71320;SDS011;59118;54.322;18.576;2022-07-23T00:53:02;14.23;;;8.30;;
71320;SDS011;59118;54.322;18.576;2022-07-23T00:55:30;15.57;;;8.77;;
71320;SDS011;59118;54.322;18.576;2022-07-23T00:57:56;15.00;;;8.32;;
71320;SDS011;59118;54.322;18.576;2022-07-23T01:00:23;13.43;;;8.55;;
71320;SDS011;59118;54.322;18.576;2022-07-23T01:02:50;14.43;;;8.53;;
71320;SDS011;59118;54.322;18.576;2022-07-23T01:05:17;15.18;;;8.35;;
71320;SDS011;59118;54.322;18.576;2022-07-23T01:07:51;15.00;;;8.13;;
71320;SDS011;59118;54.322;18.576;2022-07-23T01:10:21;14.32;;;8.50;;
71320;SDS011;59118;54.322;18.576;2022-07-23T01:13:02;13.00;;;7.70;;
71320;SDS011;59118;54.322;18.576;2022-07-23T01:15:34;16.67;;;8.43;;
71320;SDS011;59118;54.322;18.576;2022-07-23T01:18:02;12.18;;;7.65;;
71320;SDS011;59118;54.322;18.576;2022-07-23T01:20:32;13.57;;;7.70;;
71320;SDS011;59118;54.322;18.576;2022-07-23T01:22:59;11.50;;;7.28;;
71320;SDS011;59118;54.322;18.576;2022-07-23T01:25:25;14.93;;;8.38;;
71320;SDS011;59118;54.322;18.576;2022-07-23T01:27:52;13.90;;;7.97;;
71320;SDS011;59118;54.322;18.576;2022-07-23T01:30:20;12.80;;;7.85;;
71320;SDS011;59118;54.322;18.576;2022-07-23T01:32:46;12.95;;;8.60;;
71320;SDS011;59118;54.322;18.576;2022-07-23T01:35:13;16.75;;;8.73;;
71320;SDS011;59118;54.322;18.576;2022-07-23T01:37:40;13.43;;;8.23;;
71320;SDS011;59118;54.322;18.576;2022-07-23T01:40:08;14.23;;;8.10;;
71320;SDS011;59118;54.322;18.576;2022-07-23T01:42:36;12.00;;;7.63;;
71320;SDS011;59118;54.322;18.576;2022-07-23T01:45:05;17.88;;;8.40;;
71320;SDS011;59118;54.322;18.576;2022-07-23T01:47:33;14.95;;;8.45;;
71320;SDS011;59118;54.322;18.576;2022-07-23T01:50:00;14.35;;;8.50;;
71320;SDS011;59118;54.322;18.576;2022-07-23T01:52:26;13.03;;;7.90;;
71320;SDS011;59118;54.322;18.576;2022-07-23T01:54:54;16.52;;;7.90;;
71320;SDS011;59118;54.322;18.576;2022-07-23T01:57:22;13.05;;;7.93;;
71320;SDS011;59118;54.322;18.576;2022-07-23T01:59:50;14.20;;;8.25;;
71320;SDS011;59118;54.322;18.576;2022-07-23T02:02:17;13.93;;;7.65;;
71320;SDS011;59118;54.322;18.576;2022-07-23T02:04:44;14.80;;;7.80;;
71320;SDS011;59118;54.322;18.576;2022-07-23T02:07:10;13.65;;;7.85;;
71320;SDS011;59118;54.322;18.576;2022-07-23T02:09:37;13.68;;;7.70;;
71320;SDS011;59118;54.322;18.576;2022-07-23T02:12:04;13.50;;;8.00;;
71320;SDS011;59118;54.322;18.576;2022-07-23T02:14:30;11.45;;;7.15;;
71320;SDS011;59118;54.322;18.576;2022-07-23T02:16:57;12.87;;;7.37;;
71320;SDS011;59118;54.322;18.576;2022-07-23T02:19:24;14.77;;;7.72;;
71320;SDS011;59118;54.322;18.576;2022-07-23T02:21:51;13.57;;;7.97;;
71320;SDS011;59118;54.322;18.576;2022-07-23T02:24:18;13.57;;;7.65;;
71320;SDS011;59118;54.322;18.576;2022-07-23T02:26:44;13.48;;;7.78;;
71320;SDS011;59118;54.322;18.576;2022-07-23T02:29:11;13.03;;;7.60;;
71320;SDS011;59118;54.322;18.576;2022-07-23T02:31:38;13.80;;;7.72;;
71320;SDS011;59118;54.322;18.576;2022-07-23T02:34:04;15.30;;;7.63;;
71320;SDS011;59118;54.322;18.576;2022-07-23T02:36:31;12.18;;;7.80;;
71320;SDS011;59118;54.322;18.576;2022-07-23T02:38:57;11.10;;;6.90;;
71320;SDS011;59118;54.322;18.576;2022-07-23T02:41:25;14.93;;;7.13;;
71320;SDS011;59118;54.322;18.576;2022-07-23T02:43:51;12.65;;;6.97;;
71320;SDS011;59118;54.322;18.576;2022-07-23T02:46:18;12.75;;;7.40;;
71320;SDS011;59118;54.322;18.576;2022-07-23T02:48:44;13.88;;;7.03;;
71320;SDS011;59118;54.322;18.576;2022-07-23T02:51:11;18.10;;;7.40;;
71320;SDS011;59118;54.322;18.576;2022-07-23T02:53:40;13.93;;;7.20;;
71320;SDS011;59118;54.322;18.576;2022-07-23T02:56:08;12.68;;;7.70;;
71320;SDS011;59118;54.322;18.576;2022-07-23T02:58:34;13.70;;;7.65;;
71320;SDS011;59118;54.322;18.576;2022-07-23T03:01:01;13.75;;;7.50;;
71320;SDS011;59118;54.322;18.576;2022-07-23T03:03:28;13.73;;;7.43;;
71320;SDS011;59118;54.322;18.576;2022-07-23T03:05:55;12.97;;;7.67;;
71320;SDS011;59118;54.322;18.576;2022-07-23T03:08:22;12.75;;;7.65;;
71320;SDS011;59118;54.322;18.576;2022-07-23T03:10:48;15.63;;;8.40;;
71320;SDS011;59118;54.322;18.576;2022-07-23T03:13:15;11.52;;;7.07;;
71320;SDS011;59118;54.322;18.576;2022-07-23T03:15:41;12.18;;;7.13;;
71320;SDS011;59118;54.322;18.576;2022-07-23T03:18:08;11.17;;;6.93;;
71320;SDS011;59118;54.322;18.576;2022-07-23T03:20:35;13.43;;;7.25;;
71320;SDS011;59118;54.322;18.576;2022-07-23T03:23:01;12.52;;;7.30;;
71320;SDS011;59118;54.322;18.576;2022-07-23T03:25:28;13.23;;;7.25;;
71320;SDS011;59118;54.322;18.576;2022-07-23T03:27:55;12.27;;;6.93;;
71320;SDS011;59118;54.322;18.576;2022-07-23T03:30:21;14.83;;;6.80;;
71320;SDS011;59118;54.322;18.576;2022-07-23T03:32:48;16.33;;;7.90;;
71320;SDS011;59118;54.322;18.576;2022-07-23T03:35:15;14.30;;;7.82;;
71320;SDS011;59118;54.322;18.576;2022-07-23T03:37:42;15.40;;;8.07;;
71320;SDS011;59118;54.322;18.576;2022-07-23T03:40:12;13.27;;;8.05;;
71320;SDS011;59118;54.322;18.576;2022-07-23T03:42:38;13.77;;;7.80;;
71320;SDS011;59118;54.322;18.576;2022-07-23T03:45:07;15.80;;;7.78;;
71320;SDS011;59118;54.322;18.576;2022-07-23T03:47:34;14.43;;;8.25;;
71320;SDS011;59118;54.322;18.576;2022-07-23T03:50:03;16.52;;;7.63;;
71320;SDS011;59118;54.322;18.576;2022-07-23T03:52:30;12.40;;;7.50;;
71320;SDS011;59118;54.322;18.576;2022-07-23T03:54:57;13.90;;;7.70;;
71320;SDS011;59118;54.322;18.576;2022-07-23T03:57:23;14.85;;;7.63;;
71320;SDS011;59118;54.322;18.576;2022-07-23T03:59:50;13.00;;;7.82;;
71320;SDS011;59118;54.322;18.576;2022-07-23T04:02:16;11.75;;;7.70;;
71320;SDS011;59118;54.322;18.576;2022-07-23T04:04:43;12.50;;;7.07;;
71320;SDS011;59118;54.322;18.576;2022-07-23T04:07:09;15.53;;;8.33;;
71320;SDS011;59118;54.322;18.576;2022-07-23T04:09:36;14.63;;;7.47;;
71320;SDS011;59118;54.322;18.576;2022-07-23T04:12:03;14.98;;;7.97;;
71320;SDS011;59118;54.322;18.576;2022-07-23T04:14:29;12.73;;;7.55;;
71320;SDS011;59118;54.322;18.576;2022-07-23T04:16:56;15.80;;;7.22;;
71320;SDS011;59118;54.322;18.576;2022-07-23T04:19:24;14.90;;;7.33;;
71320;SDS011;59118;54.322;18.576;2022-07-23T04:21:51;16.55;;;7.13;;
71320;SDS011;59118;54.322;18.576;2022-07-23T04:24:17;13.88;;;7.90;;
71320;SDS011;59118;54.322;18.576;2022-07-23T04:26:44;12.70;;;7.57;;
71320;SDS011;59118;54.322;18.576;2022-07-23T04:29:11;14.60;;;7.70;;
71320;SDS011;59118;54.322;18.576;2022-07-23T04:31:38;16.97;;;7.70;;
71320;SDS011;59118;54.322;18.576;2022-07-23T04:34:04;15.25;;;7.47;;
71320;SDS011;59118;54.322;18.576;2022-07-23T04:36:31;13.52;;;7.65;;
71320;SDS011;59118;54.322;18.576;2022-07-23T04:38:58;12.85;;;7.70;;
71320;SDS011;59118;54.322;18.576;2022-07-23T04:41:24;14.07;;;7.13;;
71320;SDS011;59118;54.322;18.576;2022-07-23T04:43:51;15.23;;;6.87;;
71320;SDS011;59118;54.322;18.576;2022-07-23T04:46:17;14.88;;;7.40;;
71320;SDS011;59118;54.322;18.576;2022-07-23T04:48:46;15.07;;;7.00;;
71320;SDS011;59118;54.322;18.576;2022-07-23T04:51:14;14.40;;;7.20;;
71320;SDS011;59118;54.322;18.576;2022-07-23T04:53:40;14.32;;;7.20;;
71320;SDS011;59118;54.322;18.576;2022-07-23T04:56:07;13.53;;;6.77;;
71320;SDS011;59118;54.322;18.576;2022-07-23T04:58:33;13.07;;;6.18;;
71320;SDS011;59118;54.322;18.576;2022-07-23T05:01:00;12.13;;;6.32;;
71320;SDS011;59118;54.322;18.576;2022-07-23T05:03:27;12.10;;;6.32;;
71320;SDS011;59118;54.322;18.576;2022-07-23T05:05:53;14.25;;;6.40;;
71320;SDS011;59118;54.322;18.576;2022-07-23T05:08:20;11.80;;;5.60;;
71320;SDS011;59118;54.322;18.576;2022-07-23T05:10:47;13.65;;;5.90;;
71320;SDS011;59118;54.322;18.576;2022-07-23T05:13:17;12.45;;;6.30;;
71320;SDS011;59118;54.322;18.576;2022-07-23T05:15:44;13.93;;;6.30;;
71320;SDS011;59118;54.322;18.576;2022-07-23T05:18:11;16.13;;;6.47;;
71320;SDS011;59118;54.322;18.576;2022-07-23T05:20:38;10.77;;;5.90;;
71320;SDS011;59118;54.322;18.576;2022-07-23T05:23:06;9.85;;;5.72;;
71320;SDS011;59118;54.322;18.576;2022-07-23T05:25:33;15.00;;;6.10;;
71320;SDS011;59118;54.322;18.576;2022-07-23T05:27:59;14.50;;;6.32;;
71320;SDS011;59118;54.322;18.576;2022-07-23T05:30:26;13.20;;;5.88;;
71320;SDS011;59118;54.322;18.576;2022-07-23T05:32:52;12.30;;;6.03;;
71320;SDS011;59118;54.322;18.576;2022-07-23T05:35:19;12.07;;;5.88;;
71320;SDS011;59118;54.322;18.576;2022-07-23T05:37:46;11.15;;;5.45;;
71320;SDS011;59118;54.322;18.576;2022-07-23T05:40:12;11.05;;;5.20;;
71320;SDS011;59118;54.322;18.576;2022-07-23T05:42:40;12.80;;;5.50;;
71320;SDS011;59118;54.322;18.576;2022-07-23T05:45:07;11.27;;;5.40;;
71320;SDS011;59118;54.322;18.576;2022-07-23T05:47:47;10.02;;;4.85;;
71320;SDS011;59118;54.322;18.576;2022-07-23T05:50:15;10.30;;;5.20;;
71320;SDS011;59118;54.322;18.576;2022-07-23T05:52:42;11.20;;;5.07;;
71320;SDS011;59118;54.322;18.576;2022-07-23T05:55:09;11.77;;;5.28;;
71320;SDS011;59118;54.322;18.576;2022-07-23T05:57:37;17.63;;;6.70;;
71320;SDS011;59118;54.322;18.576;2022-07-23T06:00:04;16.33;;;5.15;;
71320;SDS011;59118;54.322;18.576;2022-07-23T06:02:31;13.02;;;5.30;;
71320;SDS011;59118;54.322;18.576;2022-07-23T06:04:58;10.48;;;4.80;;
71320;SDS011;59118;54.322;18.576;2022-07-23T06:07:24;13.20;;;5.18;;
71320;SDS011;59118;54.322;18.576;2022-07-23T06:09:51;10.03;;;4.83;;
71320;SDS011;59118;54.322;18.576;2022-07-23T06:12:17;11.75;;;4.95;;
71320;SDS011;59118;54.322;18.576;2022-07-23T06:14:44;15.10;;;5.78;;
71320;SDS011;59118;54.322;18.576;2022-07-23T06:17:10;11.32;;;5.00;;
71320;SDS011;59118;54.322;18.576;2022-07-23T06:19:37;12.40;;;5.07;;
71320;SDS011;59118;54.322;18.576;2022-07-23T06:22:04;9.63;;;4.40;;
71320;SDS011;59118;54.322;18.576;2022-07-23T06:24:30;12.15;;;4.70;;
71320;SDS011;59118;54.322;18.576;2022-07-23T06:26:58;11.55;;;4.90;;
71320;SDS011;59118;54.322;18.576;2022-07-23T06:29:25;13.93;;;5.00;;
71320;SDS011;59118;54.322;18.576;2022-07-23T06:31:52;11.32;;;5.13;;
71320;SDS011;59118;54.322;18.576;2022-07-23T06:34:19;8.73;;;4.33;;
71320;SDS011;59118;54.322;18.576;2022-07-23T06:36:45;9.43;;;4.30;;
71320;SDS011;59118;54.322;18.576;2022-07-23T06:39:12;12.32;;;5.13;;
71320;SDS011;59118;54.322;18.576;2022-07-23T06:41:39;10.20;;;4.60;;
71320;SDS011;59118;54.322;18.576;2022-07-23T06:44:05;10.52;;;4.93;;
71320;SDS011;59118;54.322;18.576;2022-07-23T06:46:32;10.83;;;4.60;;
71320;SDS011;59118;54.322;18.576;2022-07-23T06:48:59;13.85;;;5.38;;
71320;SDS011;59118;54.322;18.576;2022-07-23T06:51:26;8.15;;;4.72;;
71320;SDS011;59118;54.322;18.576;2022-07-23T06:53:52;11.40;;;4.65;;
71320;SDS011;59118;54.322;18.576;2022-07-23T06:56:19;8.90;;;4.50;;
71320;SDS011;59118;54.322;18.576;2022-07-23T06:58:45;10.53;;;4.77;;
71320;SDS011;59118;54.322;18.576;2022-07-23T07:01:12;10.88;;;4.70;;
71320;SDS011;59118;54.322;18.576;2022-07-23T07:03:40;12.60;;;4.40;;
71320;SDS011;59118;54.322;18.576;2022-07-23T07:06:06;9.57;;;4.93;;
71320;SDS011;59118;54.322;18.576;2022-07-23T07:08:33;9.75;;;5.40;;
71320;SDS011;59118;54.322;18.576;2022-07-23T07:11:00;8.83;;;5.00;;
71320;SDS011;59118;54.322;18.576;2022-07-23T07:13:27;10.27;;;5.03;;
71320;SDS011;59118;54.322;18.576;2022-07-23T07:15:53;9.30;;;4.72;;
71320;SDS011;59118;54.322;18.576;2022-07-23T07:18:20;9.45;;;5.05;;
71320;SDS011;59118;54.322;18.576;2022-07-23T07:20:47;10.27;;;4.80;;
71320;SDS011;59118;54.322;18.576;2022-07-23T07:23:13;10.10;;;4.87;;
71320;SDS011;59118;54.322;18.576;2022-07-23T07:25:41;10.93;;;4.80;;
71320;SDS011;59118;54.322;18.576;2022-07-23T07:28:08;8.15;;;4.82;;
71320;SDS011;59118;54.322;18.576;2022-07-23T07:30:35;9.85;;;5.10;;
71320;SDS011;59118;54.322;18.576;2022-07-23T07:33:02;8.20;;;5.00;;
71320;SDS011;59118;54.322;18.576;2022-07-23T07:35:29;7.30;;;4.70;;
71320;SDS011;59118;54.322;18.576;2022-07-23T07:37:55;11.13;;;5.15;;
71320;SDS011;59118;54.322;18.576;2022-07-23T07:40:22;9.52;;;4.70;;
71320;SDS011;59118;54.322;18.576;2022-07-23T07:42:52;9.77;;;4.50;;
71320;SDS011;59118;54.322;18.576;2022-07-23T07:45:19;8.88;;;4.90;;
71320;SDS011;59118;54.322;18.576;2022-07-23T07:47:47;10.17;;;5.47;;
71320;SDS011;59118;54.322;18.576;2022-07-23T07:50:14;9.75;;;5.13;;
71320;SDS011;59118;54.322;18.576;2022-07-23T07:52:40;8.00;;;5.07;;
71320;SDS011;59118;54.322;18.576;2022-07-23T07:55:08;8.25;;;4.82;;
71320;SDS011;59118;54.322;18.576;2022-07-23T07:57:35;10.27;;;4.95;;
71320;SDS011;59118;54.322;18.576;2022-07-23T08:00:03;11.73;;;5.13;;
71320;SDS011;59118;54.322;18.576;2022-07-23T08:02:45;10.07;;;5.15;;
71320;SDS011;59118;54.322;18.576;2022-07-23T08:05:22;10.55;;;4.68;;
71320;SDS011;59118;54.322;18.576;2022-07-23T08:07:54;9.85;;;5.30;;
71320;SDS011;59118;54.322;18.576;2022-07-23T08:10:21;10.07;;;5.63;;
71320;SDS011;59118;54.322;18.576;2022-07-23T08:12:50;8.17;;;4.40;;
71320;SDS011;59118;54.322;18.576;2022-07-23T08:15:20;11.68;;;5.70;;
71320;SDS011;59118;54.322;18.576;2022-07-23T08:17:47;8.90;;;4.93;;
71320;SDS011;59118;54.322;18.576;2022-07-23T08:20:18;11.43;;;4.93;;
71320;SDS011;59118;54.322;18.576;2022-07-23T08:22:47;9.68;;;5.07;;
71320;SDS011;59118;54.322;18.576;2022-07-23T08:25:24;9.20;;;4.80;;
71320;SDS011;59118;54.322;18.576;2022-07-23T08:27:52;9.35;;;5.35;;
71320;SDS011;59118;54.322;18.576;2022-07-23T08:30:19;8.77;;;5.40;;
71320;SDS011;59118;54.322;18.576;2022-07-23T08:33:00;11.13;;;5.47;;
71320;SDS011;59118;54.322;18.576;2022-07-23T08:36:00;7.75;;;4.97;;
71320;SDS011;59118;54.322;18.576;2022-07-23T08:38:30;9.17;;;5.30;;
71320;SDS011;59118;54.322;18.576;2022-07-23T08:40:57;12.27;;;5.10;;
71320;SDS011;59118;54.322;18.576;2022-07-23T08:43:31;8.73;;;4.93;;
71320;SDS011;59118;54.322;18.576;2022-07-23T08:46:00;10.30;;;5.30;;
71320;SDS011;59118;54.322;18.576;2022-07-23T08:48:29;9.48;;;4.53;;
71320;SDS011;59118;54.322;18.576;2022-07-23T08:51:00;11.57;;;5.70;;
71320;SDS011;59118;54.322;18.576;2022-07-23T08:53:29;9.13;;;5.20;;
71320;SDS011;59118;54.322;18.576;2022-07-23T08:55:57;8.90;;;5.03;;
71320;SDS011;59118;54.322;18.576;2022-07-23T08:58:30;9.05;;;5.40;;
71320;SDS011;59118;54.322;18.576;2022-07-23T09:00:57;11.02;;;5.53;;
71320;SDS011;59118;54.322;18.576;2022-07-23T09:03:28;9.93;;;5.70;;
71320;SDS011;59118;54.322;18.576;2022-07-23T09:05:56;9.10;;;5.18;;
71320;SDS011;59118;54.322;18.576;2022-07-23T09:08:36;8.35;;;5.00;;
71320;SDS011;59118;54.322;18.576;2022-07-23T09:11:05;8.10;;;5.28;;
71320;SDS011;59118;54.322;18.576;2022-07-23T09:18:50;10.68;;;5.55;;
71320;SDS011;59118;54.322;18.576;2022-07-23T09:23:47;10.60;;;5.22;;
71320;SDS011;59118;54.322;18.576;2022-07-23T09:28:55;9.93;;;5.30;;
71320;SDS011;59118;54.322;18.576;2022-07-23T09:31:55;9.85;;;4.93;;
71320;SDS011;59118;54.322;18.576;2022-07-23T09:34:31;11.63;;;5.00;;
71320;SDS011;59118;54.322;18.576;2022-07-23T09:37:13;10.13;;;5.50;;
71320;SDS011;59118;54.322;18.576;2022-07-23T09:39:41;9.95;;;5.28;;
71320;SDS011;59118;54.322;18.576;2022-07-23T09:44:43;9.00;;;4.95;;
71320;SDS011;59118;54.322;18.576;2022-07-23T09:47:11;23.23;;;6.00;;
71320;SDS011;59118;54.322;18.576;2022-07-23T09:49:37;13.30;;;5.65;;
71320;SDS011;59118;54.322;18.576;2022-07-23T09:52:05;7.50;;;5.30;;
71320;SDS011;59118;54.322;18.576;2022-07-23T09:54:36;9.50;;;5.40;;
71320;SDS011;59118;54.322;18.576;2022-07-23T09:57:08;8.60;;;5.28;;
71320;SDS011;59118;54.322;18.576;2022-07-23T09:59:40;7.97;;;5.32;;
71320;SDS011;59118;54.322;18.576;2022-07-23T10:02:07;7.93;;;5.35;;
71320;SDS011;59118;54.322;18.576;2022-07-23T10:04:35;9.20;;;5.30;;
71320;SDS011;59118;54.322;18.576;2022-07-23T10:07:05;8.57;;;4.80;;
71320;SDS011;59118;54.322;18.576;2022-07-23T10:09:35;8.98;;;4.68;;
71320;SDS011;59118;54.322;18.576;2022-07-23T10:12:04;9.20;;;5.10;;
71320;SDS011;59118;54.322;18.576;2022-07-23T10:14:39;9.13;;;5.35;;
71320;SDS011;59118;54.322;18.576;2022-07-23T10:17:07;9.98;;;5.57;;
71320;SDS011;59118;54.322;18.576;2022-07-23T10:19:33;8.70;;;5.50;;
71320;SDS011;59118;54.322;18.576;2022-07-23T10:22:02;10.68;;;5.13;;
71320;SDS011;59118;54.322;18.576;2022-07-23T10:27:31;9.57;;;5.25;;
71320;SDS011;59118;54.322;18.576;2022-07-23T10:37:48;8.55;;;5.65;;
71320;SDS011;59118;54.322;18.576;2022-07-23T10:40:18;9.48;;;5.75;;
71320;SDS011;59118;54.322;18.576;2022-07-23T10:42:47;8.20;;;5.30;;
71320;SDS011;59118;54.322;18.576;2022-07-23T10:47:51;11.27;;;5.63;;
71320;SDS011;59118;54.322;18.576;2022-07-23T10:55:44;9.88;;;5.45;;
71320;SDS011;59118;54.322;18.576;2022-07-23T10:58:12;10.50;;;5.90;;
71320;SDS011;59118;54.322;18.576;2022-07-23T11:00:46;11.82;;;5.82;;
71320;SDS011;59118;54.322;18.576;2022-07-23T11:03:29;9.30;;;5.93;;
71320;SDS011;59118;54.322;18.576;2022-07-23T11:06:03;12.82;;;5.63;;
71320;SDS011;59118;54.322;18.576;2022-07-23T11:08:30;15.60;;;5.57;;
71320;SDS011;59118;54.322;18.576;2022-07-23T11:16:14;9.23;;;5.63;;
71320;SDS011;59118;54.322;18.576;2022-07-23T11:26:48;10.60;;;5.88;;
71320;SDS011;59118;54.322;18.576;2022-07-23T11:34:40;11.43;;;5.88;;
71320;SDS011;59118;54.322;18.576;2022-07-23T11:37:10;9.97;;;5.63;;
71320;SDS011;59118;54.322;18.576;2022-07-23T11:39:39;11.05;;;5.90;;
71320;SDS011;59118;54.322;18.576;2022-07-23T11:42:06;11.93;;;6.15;;
71320;SDS011;59118;54.322;18.576;2022-07-23T11:44:37;13.95;;;5.80;;
71320;SDS011;59118;54.322;18.576;2022-07-23T11:47:08;10.02;;;5.63;;
71320;SDS011;59118;54.322;18.576;2022-07-23T11:49:36;11.90;;;5.70;;
71320;SDS011;59118;54.322;18.576;2022-07-23T11:54:33;9.95;;;5.43;;
71320;SDS011;59118;54.322;18.576;2022-07-23T11:57:05;9.80;;;5.68;;
71320;SDS011;59118;54.322;18.576;2022-07-23T11:59:33;9.40;;;5.78;;
71320;SDS011;59118;54.322;18.576;2022-07-23T12:02:01;10.67;;;5.37;;
71320;SDS011;59118;54.322;18.576;2022-07-23T12:04:39;11.00;;;5.85;;
71320;SDS011;59118;54.322;18.576;2022-07-23T12:07:26;11.00;;;5.50;;
71320;SDS011;59118;54.322;18.576;2022-07-23T12:09:56;10.90;;;5.53;;
71320;SDS011;59118;54.322;18.576;2022-07-23T12:12:24;11.77;;;5.35;;
71320;SDS011;59118;54.322;18.576;2022-07-23T12:14:52;11.77;;;5.57;;
71320;SDS011;59118;54.322;18.576;2022-07-23T12:17:20;10.00;;;5.85;;
71320;SDS011;59118;54.322;18.576;2022-07-23T12:19:47;10.15;;;5.95;;
71320;SDS011;59118;54.322;18.576;2022-07-23T12:22:16;14.18;;;6.18;;
71320;SDS011;59118;54.322;18.576;2022-07-23T12:24:52;13.38;;;5.90;;
71320;SDS011;59118;54.322;18.576;2022-07-23T12:27:26;11.17;;;6.00;;
71320;SDS011;59118;54.322;18.576;2022-07-23T12:29:53;13.65;;;6.13;;
71320;SDS011;59118;54.322;18.576;2022-07-23T12:32:24;10.68;;;6.20;;
71320;SDS011;59118;54.322;18.576;2022-07-23T12:35:04;12.68;;;5.90;;
71320;SDS011;59118;54.322;18.576;2022-07-23T12:37:35;12.70;;;6.60;;
71320;SDS011;59118;54.322;18.576;2022-07-23T12:43:19;13.73;;;6.38;;
71320;SDS011;59118;54.322;18.576;2022-07-23T12:45:53;12.40;;;6.65;;
71320;SDS011;59118;54.322;18.576;2022-07-23T12:48:28;10.23;;;6.20;;
71320;SDS011;59118;54.322;18.576;2022-07-23T12:51:23;10.23;;;5.50;;
71320;SDS011;59118;54.322;18.576;2022-07-23T12:53:55;9.33;;;5.27;;
71320;SDS011;59118;54.322;18.576;2022-07-23T12:56:30;10.90;;;5.70;;
71320;SDS011;59118;54.322;18.576;2022-07-23T12:58:58;10.50;;;5.40;;
71320;SDS011;59118;54.322;18.576;2022-07-23T13:01:34;10.48;;;5.28;;
71320;SDS011;59118;54.322;18.576;2022-07-23T13:04:03;10.70;;;5.57;;
71320;SDS011;59118;54.322;18.576;2022-07-23T13:06:40;10.17;;;5.33;;
71320;SDS011;59118;54.322;18.576;2022-07-23T13:09:08;9.43;;;5.40;;
71320;SDS011;59118;54.322;18.576;2022-07-23T13:11:38;9.77;;;5.32;;
71320;SDS011;59118;54.322;18.576;2022-07-23T13:14:05;9.93;;;5.45;;
71320;SDS011;59118;54.322;18.576;2022-07-23T13:16:34;9.93;;;5.88;;
71320;SDS011;59118;54.322;18.576;2022-07-23T13:19:02;8.40;;;5.40;;
71320;SDS011;59118;54.322;18.576;2022-07-23T13:21:29;8.45;;;5.22;;
71320;SDS011;59118;54.322;18.576;2022-07-23T13:23:57;9.68;;;5.13;;
71320;SDS011;59118;54.322;18.576;2022-07-23T13:26:23;9.60;;;5.68;;
71320;SDS011;59118;54.322;18.576;2022-07-23T13:28:50;9.07;;;5.10;;
71320;SDS011;59118;54.322;18.576;2022-07-23T13:31:17;9.17;;;5.30;;
71320;SDS011;59118;54.322;18.576;2022-07-23T13:33:44;8.43;;;5.35;;
71320;SDS011;59118;54.322;18.576;2022-07-23T13:36:13;11.13;;;5.43;;
71320;SDS011;59118;54.322;18.576;2022-07-23T13:38:40;8.80;;;4.95;;
71320;SDS011;59118;54.322;18.576;2022-07-23T13:41:07;8.77;;;5.65;;
71320;SDS011;59118;54.322;18.576;2022-07-23T13:43:37;8.73;;;4.70;;
71320;SDS011;59118;54.322;18.576;2022-07-23T13:46:04;9.30;;;5.28;;
71320;SDS011;59118;54.322;18.576;2022-07-23T13:48:31;10.88;;;5.40;;
71320;SDS011;59118;54.322;18.576;2022-07-23T13:50:58;8.75;;;4.97;;
71320;SDS011;59118;54.322;18.576;2022-07-23T13:53:26;8.02;;;5.10;;
71320;SDS011;59118;54.322;18.576;2022-07-23T13:55:52;10.70;;;5.10;;
71320;SDS011;59118;54.322;18.576;2022-07-23T13:58:21;9.23;;;5.03;;
71320;SDS011;59118;54.322;18.576;2022-07-23T14:00:50;7.88;;;5.18;;
71320;SDS011;59118;54.322;18.576;2022-07-23T14:03:20;8.80;;;5.25;;
71320;SDS011;59118;54.322;18.576;2022-07-23T14:05:49;8.07;;;4.70;;
71320;SDS011;59118;54.322;18.576;2022-07-23T14:08:17;6.73;;;4.67;;
71320;SDS011;59118;54.322;18.576;2022-07-23T14:10:47;7.55;;;4.55;;
71320;SDS011;59118;54.322;18.576;2022-07-23T14:13:14;7.72;;;4.53;;
71320;SDS011;59118;54.322;18.576;2022-07-23T14:15:42;7.57;;;4.40;;
71320;SDS011;59118;54.322;18.576;2022-07-23T14:18:08;7.50;;;4.80;;
71320;SDS011;59118;54.322;18.576;2022-07-23T14:20:35;7.40;;;4.37;;
71320;SDS011;59118;54.322;18.576;2022-07-23T14:23:03;7.78;;;4.32;;
71320;SDS011;59118;54.322;18.576;2022-07-23T14:25:50;7.95;;;4.50;;
71320;SDS011;59118;54.322;18.576;2022-07-23T14:28:17;7.15;;;4.60;;
71320;SDS011;59118;54.322;18.576;2022-07-23T14:30:49;8.55;;;4.75;;
71320;SDS011;59118;54.322;18.576;2022-07-23T14:33:15;8.47;;;4.53;;
71320;SDS011;59118;54.322;18.576;2022-07-23T14:35:43;8.35;;;4.72;;
71320;SDS011;59118;54.322;18.576;2022-07-23T14:38:09;8.40;;;5.03;;
71320;SDS011;59118;54.322;18.576;2022-07-23T14:40:39;8.90;;;4.80;;
71320;SDS011;59118;54.322;18.576;2022-07-23T14:43:06;8.38;;;4.90;;
71320;SDS011;59118;54.322;18.576;2022-07-23T14:45:36;9.67;;;5.40;;
71320;SDS011;59118;54.322;18.576;2022-07-23T14:48:03;8.00;;;4.85;;
71320;SDS011;59118;54.322;18.576;2022-07-23T14:50:30;8.85;;;4.80;;
71320;SDS011;59118;54.322;18.576;2022-07-23T14:52:56;7.82;;;5.13;;
71320;SDS011;59118;54.322;18.576;2022-07-23T14:55:23;9.32;;;5.30;;
71320;SDS011;59118;54.322;18.576;2022-07-23T14:57:50;9.43;;;5.07;;
71320;SDS011;59118;54.322;18.576;2022-07-23T15:00:17;7.53;;;5.35;;
71320;SDS011;59118;54.322;18.576;2022-07-23T15:02:49;8.82;;;5.55;;
71320;SDS011;59118;54.322;18.576;2022-07-23T15:05:35;8.50;;;5.78;;
71320;SDS011;59118;54.322;18.576;2022-07-23T15:08:02;8.70;;;5.15;;
71320;SDS011;59118;54.322;18.576;2022-07-23T15:10:34;10.37;;;6.43;;
71320;SDS011;59118;54.322;18.576;2022-07-23T15:13:02;8.85;;;5.55;;
71320;SDS011;59118;54.322;18.576;2022-07-23T15:15:29;8.20;;;5.13;;
71320;SDS011;59118;54.322;18.576;2022-07-23T15:17:56;8.40;;;5.35;;
71320;SDS011;59118;54.322;18.576;2022-07-23T15:20:23;8.75;;;5.43;;
71320;SDS011;59118;54.322;18.576;2022-07-23T15:23:07;8.37;;;5.57;;
71320;SDS011;59118;54.322;18.576;2022-07-23T15:25:35;10.82;;;6.10;;
71320;SDS011;59118;54.322;18.576;2022-07-23T15:28:03;8.93;;;5.50;;
71320;SDS011;59118;54.322;18.576;2022-07-23T15:30:33;8.07;;;5.25;;